Aviation Digital Data Service (ADDS)

Output produced by METARs form (1007 UTC 17 February 2019)
found at http://aviationweather.gov/metar/data/
 
KSNS 170953Z AUTO 00000KT 10SM FEW047 SCT110 05/03 A3015 RMK AO2 RAB25E38 SLP219 P0000 T00500028 $
KSNS 170522Z 1706/1806 32006KT P6SM VCSH SCT035 BKN060 
     FM171200 15006KT P6SM -SHRA SCT035 BKN050 
     FM171800 26007KT P6SM VCSH FEW035 BKN050 
     FM172100 27012G22KT P6SM VCSH FEW035 SCT050 
     FM180300 26010KT P6SM FEW050 FEW100
       
KMRY 170954Z AUTO 10006KT 10SM FEW041 SCT048 OVC100 06/04 A3015 RMK AO2 SLP222 T00610044
KMRY 170522Z 1706/1806 22008KT P6SM VCSH FEW035 BKN050 BKN100 
     FM171200 24012KT 5SM -SHRA BKN040 
     FM171800 25014G18KT P6SM VCSH SCT040 BKN050 
     FM172100 26015G22KT P6SM VCSH FEW040 SCT050 SCT100 
     FM180400 26012KT P6SM FEW050 SCT100
       
KSJC 170953Z AUTO 13004KT 10SM SCT047 BKN100 BKN120 04/04 A3011 RMK AO2 SLP196 T00440039
KSJC 170522Z 1706/1806 26008KT P6SM VCSH FEW030 SCT050 SCT100 
     FM170900 17006KT P6SM VCSH FEW030 SCT050 BKN070 
     FM171100 15007KT P6SM -SHRA BKN040 
     FM171700 26012KT P6SM VCSH FEW040 SCT050 
     FM172100 30012G22KT P6SM VCSH FEW050 SCT100 
     FM180300 31007KT P6SM VCSH FEW050 SCT100
       
KSFO 170956Z 28007KT 10SM -RA FEW029 BKN039 OVC070 08/04 A3009 RMK AO2 RAB44 SLP189 P0000 T00830044
KSFO 170901Z 1709/1812 14005KT P6SM VCSH FEW030 SCT040 BKN100 
     FM171100 26012KT P6SM -SHRA SCT030 BKN040 BKN100 
     FM171600 27011KT P6SM VCSH FEW030 BKN050 
     FM171800 28014G22KT P6SM VCSH FEW030 BKN060 
     FM172100 28016G28KT P6SM VCSH FEW030 SCT050 
     FM180300 28012KT P6SM FEW030 SCT050 SCT150 
     FM180600 29008KT P6SM SKC
       
KLVK 170953Z AUTO 22006KT 10SM BKN110 06/03 A3008 RMK AO2 SLP186 T00560028
KLVK 170522Z 1706/1806 25013KT P6SM VCSH FEW030 SCT060 SCT100 
     FM171200 23005KT P6SM -SHRA BKN050 
     FM171700 24011KT P6SM VCSH BKN050 
     FM171900 28012KT P6SM VCSH SCT050 
     FM180400 25006KT P6SM SKC
       
KMCE 170953Z AUTO 10003KT 10SM CLR 02/02 A3012 RMK AO2 SLP202 I1000 T00170017
KMCE 170748Z 1708/1806 10008KT P6SM SKC 
     TEMPO 1708/1712 3SM BR SKC 
     FM171500 12005KT P6SM VCSH BKN029 
     FM180300 33002KT P6SM BKN100